createdAt,value
2018-01-08T13:18:21.056Z,99.90
2018-01-08T13:20:47.604Z,99.90
2018-01-08T13:23:14.019Z,99.90
2018-01-08T13:25:40.448Z,99.90
2018-01-08T13:28:07.063Z,99.90
2018-01-08T13:30:33.530Z,99.90
2018-01-08T13:33:01.562Z,99.90
2018-01-08T13:35:28.698Z,99.70
2018-01-08T13:37:55.864Z,98.90
2018-01-08T13:40:22.332Z,98.90
2018-01-08T13:42:48.842Z,98.90
2018-01-08T13:45:15.286Z,98.90
2018-01-08T13:47:41.756Z,99.30
2018-01-08T13:50:08.199Z,98.90
2018-01-08T13:52:34.627Z,98.30
2018-01-08T13:55:01.066Z,97.60
2018-01-08T13:57:27.517Z,96.80
2018-01-08T13:59:54.719Z,97.40
2018-01-08T14:02:21.245Z,97.30
2018-01-08T14:04:47.675Z,97.30
2018-01-08T14:07:14.120Z,97.40
2018-01-08T14:09:40.630Z,97.60
2018-01-08T14:12:07.817Z,98.00
2018-01-08T14:14:34.269Z,97.80
2018-01-08T14:17:00.675Z,98.20
2018-01-08T14:19:27.080Z,98.20
2018-01-08T14:21:53.503Z,98.60
2018-01-08T14:24:19.943Z,98.00
2018-01-08T14:26:46.351Z,98.20
2018-01-08T14:29:13.538Z,97.90
2018-01-08T14:31:39.949Z,97.80
2018-01-08T14:34:06.399Z,98.00
2018-01-08T14:36:32.783Z,98.30
2018-01-08T14:38:59.231Z,98.20
2018-01-08T14:41:25.645Z,98.30
2018-01-08T14:43:53.543Z,97.90
2018-01-08T14:46:20.709Z,98.00
2018-01-08T14:48:47.084Z,98.00
2018-01-08T14:51:15.045Z,97.80
2018-01-08T14:53:41.490Z,97.80
2018-01-08T14:56:07.875Z,97.90
2018-01-08T14:58:34.306Z,98.20
2018-01-08T15:01:00.762Z,98.40
2018-01-08T15:03:27.175Z,97.80
2018-01-08T15:05:53.555Z,97.70
2018-01-08T15:08:20.009Z,98.20
2018-01-08T15:10:47.201Z,98.40
2018-01-08T15:13:13.647Z,98.40
2018-01-08T15:15:40.093Z,98.60
2018-01-08T15:18:06.513Z,98.40
2018-01-08T15:20:33.009Z,98.10
2018-01-08T15:22:59.463Z,97.60
2018-01-08T15:25:25.895Z,97.30
2018-01-08T15:27:52.297Z,96.90
2018-01-08T15:30:19.428Z,97.00
2018-01-08T15:32:46.559Z,97.20
2018-01-08T15:35:12.951Z,97.20
2018-01-08T15:37:39.338Z,97.20
2018-01-08T15:40:05.740Z,97.20
2018-01-08T15:42:32.148Z,98.00
2018-01-08T15:44:58.565Z,97.90
2018-01-08T15:47:24.962Z,97.70
2018-01-08T15:49:51.347Z,97.90
2018-01-08T15:52:17.751Z,98.10
2018-01-08T15:54:44.891Z,98.30
2018-01-08T15:57:12.056Z,98.60
2018-01-08T15:59:39.196Z,98.30
2018-01-08T16:02:06.345Z,98.40
2018-01-08T16:04:33.461Z,98.40
2018-01-08T16:07:01.364Z,98.00
2018-01-08T16:09:27.773Z,98.00
2018-01-08T16:11:54.155Z,97.70
2018-01-08T16:14:20.551Z,97.40
2018-01-08T16:16:46.966Z,97.30
2018-01-08T16:19:13.368Z,97.20
2018-01-08T16:21:39.770Z,97.00
2018-01-08T16:24:06.166Z,96.90
2018-01-08T16:26:33.483Z,97.40
2018-01-08T16:28:59.886Z,97.30
2018-01-08T16:31:26.302Z,96.90
2018-01-08T16:33:53.446Z,97.70
2018-01-08T16:36:20.568Z,97.40
2018-01-08T16:38:46.978Z,97.40
2018-01-08T16:41:13.365Z,97.50
2018-01-08T16:43:40.506Z,97.60
2018-01-08T16:46:07.644Z,98.10
2018-01-08T16:48:34.806Z,98.00
2018-01-08T16:51:01.923Z,97.60
2018-01-08T16:53:29.061Z,97.30
2018-01-08T16:55:55.488Z,97.60
2018-01-08T16:58:21.900Z,97.90
2018-01-08T17:00:48.345Z,98.30
2018-01-08T17:03:14.808Z,98.20
2018-01-08T17:05:41.296Z,98.40
2018-01-08T17:08:07.816Z,98.60
2018-01-08T17:10:34.263Z,98.40
2018-01-08T17:13:00.733Z,98.50
2018-01-08T17:15:27.138Z,98.20
2018-01-08T17:17:53.581Z,98.10
2018-01-08T17:20:20.094Z,98.00
2018-01-08T17:22:46.540Z,98.00
2018-01-08T17:25:13.721Z,97.90
2018-01-08T17:27:40.119Z,97.80
2018-01-08T17:30:06.525Z,97.70
2018-01-08T17:32:33.681Z,98.00
2018-01-08T17:35:00.839Z,98.50
2018-01-08T17:37:27.973Z,98.40
2018-01-08T17:39:55.112Z,98.70
2018-01-08T17:42:22.279Z,98.70
2018-01-08T17:44:49.400Z,98.70
2018-01-08T17:47:15.838Z,98.70
2018-01-08T17:49:42.996Z,98.90
2018-01-08T17:52:10.144Z,99.20
2018-01-08T17:54:36.538Z,99.40
2018-01-08T17:57:02.955Z,99.10
2018-01-08T17:59:29.344Z,98.90
2018-01-08T18:01:57.364Z,98.50
2018-01-08T18:04:23.727Z,98.50
2018-01-08T18:06:50.131Z,98.20
2018-01-08T18:09:16.540Z,98.00
2018-01-08T18:11:43.011Z,98.00
2018-01-08T18:14:09.407Z,98.10
2018-01-08T18:16:35.839Z,98.60
2018-01-08T18:19:02.244Z,98.10
2018-01-08T18:21:29.420Z,97.90
2018-01-08T18:23:55.826Z,97.80
2018-01-08T18:26:22.281Z,97.60
2018-01-08T18:28:48.676Z,97.30
2018-01-08T18:31:15.116Z,97.70
2018-01-08T18:33:41.523Z,97.40
2018-01-08T18:36:07.916Z,97.80
2018-01-08T18:38:34.346Z,97.50
2018-01-08T18:41:01.496Z,97.70
2018-01-08T18:43:27.902Z,97.70
2018-01-08T18:45:55.058Z,97.80
2018-01-08T18:48:22.209Z,97.80
2018-01-08T18:50:49.395Z,97.90
2018-01-08T18:53:15.792Z,97.90
2018-01-08T18:55:42.929Z,97.80
2018-01-08T18:58:09.358Z,97.80
2018-01-08T19:00:35.850Z,97.80
2018-01-08T19:03:02.315Z,97.20
2018-01-08T19:05:29.508Z,96.70
2018-01-08T19:07:55.906Z,96.70
2018-01-08T19:10:22.299Z,96.90
2018-01-08T19:12:48.744Z,96.90
2018-01-08T19:15:15.191Z,96.80
2018-01-08T19:17:41.586Z,96.80
2018-01-08T19:20:08.014Z,96.50
2018-01-08T19:22:34.485Z,95.80
2018-01-08T19:25:00.903Z,95.60
2018-01-08T19:27:27.314Z,95.50
2018-01-08T19:29:53.709Z,95.20
2018-01-08T19:32:20.856Z,95.10
2018-01-08T19:34:48.010Z,96.00
2018-01-08T19:37:15.152Z,96.50
2018-01-08T19:39:41.547Z,96.50
2018-01-08T19:42:07.917Z,96.70
2018-01-08T19:44:34.320Z,96.40
2018-01-08T19:47:00.717Z,96.20
2018-01-08T19:49:27.095Z,96.30
2018-01-08T19:51:53.550Z,96.30
2018-01-08T19:54:19.947Z,95.60
2018-01-08T19:56:46.344Z,96.20
2018-01-08T19:59:13.568Z,96.60
2018-01-08T20:01:40.723Z,97.00
2018-01-08T20:04:07.852Z,96.90
2018-01-08T20:06:34.297Z,96.90
2018-01-08T20:09:01.476Z,97.00
2018-01-08T20:11:27.902Z,97.00
2018-01-08T20:13:55.031Z,97.80
2018-01-08T20:16:22.151Z,98.00
2018-01-08T20:18:48.576Z,98.00
2018-01-08T20:21:14.971Z,98.30
2018-01-08T20:23:41.437Z,98.40
2018-01-08T20:26:07.836Z,98.20
2018-01-08T20:28:34.236Z,97.90
2018-01-08T20:31:00.683Z,98.40
2018-01-08T20:33:27.853Z,98.50
2018-01-08T20:35:54.252Z,98.50
2018-01-08T20:38:20.654Z,98.40
2018-01-08T20:40:47.038Z,98.30
2018-01-08T20:43:14.205Z,98.70
2018-01-08T20:45:40.627Z,98.70
2018-01-08T20:48:07.022Z,98.90
2018-01-08T20:50:33.417Z,99.00
2018-01-08T20:52:59.789Z,99.10
2018-01-08T20:55:27.656Z,99.00
2018-01-08T20:57:54.057Z,99.00
2018-01-08T21:00:20.487Z,99.10
2018-01-08T21:02:46.888Z,99.20
2018-01-08T21:05:13.292Z,99.40
2018-01-08T21:07:40.432Z,99.30
2018-01-08T21:10:06.803Z,99.70
2018-01-08T21:12:33.228Z,99.60
2018-01-08T21:15:00.360Z,99.90
2018-01-08T21:17:27.499Z,99.90
2018-01-08T21:19:53.891Z,99.90
2018-01-08T21:22:20.325Z,99.90
2018-01-08T21:24:46.710Z,99.90
2018-01-08T21:27:13.875Z,99.80
2018-01-08T21:29:40.271Z,99.80
2018-01-08T21:32:06.690Z,99.30
2018-01-08T21:34:33.077Z,98.40
2018-01-08T21:36:59.483Z,98.50
2018-01-08T21:39:26.624Z,97.80
2018-01-08T21:41:52.996Z,97.60
2018-01-08T21:44:19.388Z,97.30
2018-01-08T21:46:45.771Z,96.40
2018-01-08T21:49:12.168Z,96.50
2018-01-08T21:51:39.302Z,96.30
2018-01-08T21:54:05.695Z,96.30
2018-01-08T21:56:32.079Z,96.80
2018-01-08T21:58:59.255Z,96.90
2018-01-08T22:01:25.658Z,96.80
2018-01-08T22:03:52.802Z,96.20
2018-01-08T22:06:19.981Z,96.60
2018-01-08T22:08:46.354Z,96.60
2018-01-08T22:11:12.742Z,96.50
2018-01-08T22:13:39.123Z,96.90
2018-01-08T22:16:05.505Z,97.40
2018-01-08T22:18:31.941Z,97.80
2018-01-08T22:20:58.443Z,98.40
2018-01-08T22:23:24.805Z,98.60
2018-01-08T22:25:51.186Z,98.30
2018-01-08T22:28:17.591Z,98.80
2018-01-08T22:30:43.987Z,98.60
2018-01-08T22:33:11.110Z,98.30
2018-01-08T22:35:38.995Z,98.00
2018-01-08T22:38:06.146Z,98.30
2018-01-08T22:40:32.531Z,98.30
2018-01-08T22:42:58.936Z,98.40
2018-01-08T22:45:25.327Z,98.60
2018-01-08T22:47:51.711Z,98.20
2018-01-08T22:50:18.109Z,98.60
2018-01-08T22:52:45.256Z,98.80
2018-01-08T22:55:12.391Z,98.80
2018-01-08T22:57:38.776Z,98.80
2018-01-08T23:00:05.183Z,98.50
2018-01-08T23:02:32.303Z,98.70
2018-01-08T23:04:58.713Z,98.70
2018-01-08T23:07:25.102Z,98.00
2018-01-08T23:09:51.495Z,97.70
2018-01-08T23:12:19.401Z,96.80
2018-01-08T23:14:46.531Z,97.70
2018-01-08T23:17:13.647Z,97.70
2018-01-08T23:19:40.035Z,97.70
2018-01-08T23:22:06.427Z,98.00
2018-01-08T23:24:34.318Z,98.00
2018-01-08T23:27:01.482Z,98.40
2018-01-08T23:29:27.932Z,98.40
2018-01-08T23:31:54.338Z,98.50
2018-01-08T23:34:20.750Z,98.70
2018-01-08T23:36:47.908Z,99.00
2018-01-08T23:39:15.062Z,99.70
2018-01-08T23:41:42.220Z,99.90
2018-01-08T23:44:08.604Z,99.90
2018-01-08T23:46:34.990Z,98.90
2018-01-08T23:49:02.106Z,98.30
2018-01-08T23:51:28.510Z,98.30
2018-01-08T23:53:54.908Z,98.50
2018-01-08T23:56:21.283Z,97.60
2018-01-08T23:58:47.722Z,97.90
